Catalonia — 9HWS7 — position and weather

sailwx.info

Track history (hours):
 
Tides and Currents Weather Stations Pressure Air Temp Water Temp Dewpoint Dewpoint Depression Visibility Wind Speed Wind Dir Waves Ship Positions

Catalonia

Last reported at 2015-Apr-12 07:25 UTC. Time now 2015-May-04 06:00 UTC.
Position N 34°56' E 120°00'.
Warning: this ship's position is 21 days out of date.

Length 189 m; draft 8 m.

Type: Cargo ship. MMSI: 215929000.

Date/timePositionNaut miles runAvg speedWind from/ knotsBaromVisibWave heightAir tempDewpointWater temp
2015-Apr-12 07:25N 34°56' E 120°00'1313.6
2015-Apr-12 06:29N 34°51' E 119°46'1011.1
2015-Apr-12 05:33N 34°46' E 119°35'9 9.3
2015-Apr-12 04:33N 34°45' E 119°24'0 0.2
2015-Apr-12 03:32N 34°45' E 119°24'0 0.0
2015-Apr-12 02:32N 34°45' E 119°24'0 0.0
2015-Apr-12 01:32N 34°45' E 119°24'0 0.0
2015-Apr-12 00:32N 34°45' E 119°24'0 0.0
2015-Apr-11 23:33N 34°45' E 119°24'0 0.0
2015-Apr-11 22:20N 34°45' E 119°24'0 0.0
2015-Apr-11 21:32N 34°45' E 119°24'0 0.0
2015-Apr-11 20:32N 34°45' E 119°24'0 0.0
2015-Apr-11 19:32N 34°45' E 119°24'0 0.0
2015-Apr-11 18:32N 34°45' E 119°24'0 0.0
2015-Apr-11 17:32N 34°45' E 119°24'0 0.0
2015-Apr-11 16:32N 34°45' E 119°24'0 0.0
2015-Apr-11 15:32N 34°45' E 119°24'0 0.0
2015-Apr-11 14:32N 34°45' E 119°24'0 0.0
2015-Apr-11 13:33N 34°45' E 119°24'0 0.0
2015-Apr-11 12:32N 34°45' E 119°24'0 0.0
2015-Apr-11 11:32N 34°45' E 119°24'0 0.0
2015-Apr-11 10:32N 34°45' E 119°24'0 0.0
2015-Apr-11 09:32N 34°45' E 119°24'0 0.0
2015-Apr-11 08:32N 34°45' E 119°24'0 0.0
2015-Apr-11 07:32N 34°45' E 119°24'0 0.0
2015-Apr-11 06:32N 34°45' E 119°24'0 0.0
2015-Apr-11 05:32N 34°45' E 119°24'0 0.0
2015-Apr-11 04:32N 34°45' E 119°24'0 0.0
2015-Apr-11 03:26N 34°45' E 119°24'0 0.0
2015-Apr-11 02:32N 34°45' E 119°24'0 0.0
2015-Apr-11 01:32N 34°45' E 119°24'0 0.0
2015-Apr-11 00:26N 34°45' E 119°24'0 0.0
2015-Apr-10 23:32N 34°45' E 119°24'0 0.0
2015-Apr-10 22:32N 34°45' E 119°24'0 0.0
2015-Apr-10 21:33N 34°45' E 119°24'0 0.0
2015-Apr-10 20:32N 34°45' E 119°24'0 0.0
2015-Apr-10 19:32N 34°45' E 119°24'0 0.0
2015-Apr-10 18:32N 34°45' E 119°24'0 0.0
2015-Apr-10 17:32N 34°45' E 119°24'0 0.0
2015-Apr-10 16:32N 34°45' E 119°24'0 0.0
2015-Apr-10 15:26N 34°45' E 119°24'0 0.0
2015-Apr-10 14:32N 34°45' E 119°24'0 0.0
2015-Apr-10 13:32N 34°45' E 119°24'1 1.1
2015-Apr-10 12:33N 34°45' E 119°25'9 8.8
2015-Apr-10 11:33N 34°47' E 119°35'10 9.8
2015-Apr-10 10:33N 34°51' E 119°46'1312.7
2015-Apr-10 09:33N 34°56' E 120°00'2 1.5
2015-Apr-10 08:18N 34°57' E 120°03'0 0.1
2015-Apr-10 06:30N 34°57' E 120°03'0 0.0
2015-Apr-10 05:30N 34°56' E 120°03'0 0.0
2015-Apr-10 04:30N 34°56' E 120°03'0 0.0
2015-Apr-10 02:30N 34°56' E 120°03'0 0.1
2015-Apr-10 01:30N 34°56' E 120°03'0 0.1
2015-Apr-09 23:06N 34°56' E 120°03'0 0.0
2015-Apr-09 19:12N 34°57' E 120°03'0 0.0
2015-Apr-09 18:30N 34°57' E 120°03'0 0.1
2015-Apr-09 17:30N 34°57' E 120°03'0 0.0
2015-Apr-09 16:30N 34°57' E 120°03'0 0.0
2015-Apr-09 15:12N 34°57' E 120°03'0 0.1
2015-Apr-09 14:24N 34°57' E 120°03'0 0.1
2015-Apr-09 13:30N 34°57' E 120°03'0 0.1
2015-Apr-09 12:30N 34°56' E 120°03'0 0.0
2015-Apr-09 11:30N 34°56' E 120°03'0 0.0
2015-Apr-09 10:30N 34°56' E 120°03'0 0.0
2015-Apr-09 09:30N 34°56' E 120°03'0 0.1
2015-Apr-09 08:30N 34°56' E 120°03'0 0.0
2015-Apr-09 07:30N 34°57' E 120°03'0 0.1
2015-Apr-09 06:30N 34°57' E 120°03'0 0.0
2015-Apr-09 03:12N 34°56' E 120°03'0 0.0
2015-Apr-08 18:12N 34°57' E 120°03'0 0.0
2015-Apr-08 01:04N 34°56' E 120°03'0 0.0
2015-Apr-08 00:22N 34°56' E 120°03'0 0.0
2015-Apr-07 22:22N 34°56' E 120°03'0 0.0
2015-Apr-05 19:10N 34°56' E 120°03'0 0.0
2015-Apr-05 08:32N 34°56' E 120°03'0 0.0
2015-Apr-04 15:31N 34°57' E 120°03'0 0.0
2015-Apr-04 12:14N 34°56' E 120°03'0 0.1
2015-Apr-04 11:20N 34°56' E 120°03'0 0.0
2015-Apr-03 15:20N 34°57' E 120°03'0 0.0
2015-Apr-03 09:32N 34°56' E 120°03'0 0.0
2015-Apr-03 07:32N 34°56' E 120°03'0 0.0
2015-Apr-03 06:14N 34°56' E 120°03'0 0.1
2015-Apr-03 04:20N 34°56' E 120°03'0 0.0
2015-Apr-02 20:08N 34°56' E 120°03'0 0.1
2015-Apr-02 18:20N 34°56' E 120°03'0 0.0
2015-Apr-02 16:14N 34°56' E 120°03'  
Track history (hours):
 
Tides and Currents Weather Stations Pressure Air Temp Water Temp Dewpoint Dewpoint Depression Visibility Wind Speed Wind Dir Waves Ship Positions

Catalonia

Last reported at 2015-Apr-12 07:25 UTC. Time now 2015-May-04 06:00 UTC.
Position N 34°56' E 120°00'.
Warning: this ship's position is 21 days out of date.

Length 189 m; draft 8 m.

Type: Cargo ship. MMSI: 215929000.

Date/timePositionNaut miles runAvg speedWind from/ knotsBaromVisibWave heightAir tempDewpointWater temp
2015-Apr-12 07:25N 34°56' E 120°00'1313.6
2015-Apr-12 06:29N 34°51' E 119°46'1011.1
2015-Apr-12 05:33N 34°46' E 119°35'9 9.3
2015-Apr-12 04:33N 34°45' E 119°24'0 0.2
2015-Apr-12 03:32N 34°45' E 119°24'0 0.0
2015-Apr-12 02:32N 34°45' E 119°24'0 0.0
2015-Apr-12 01:32N 34°45' E 119°24'0 0.0
2015-Apr-12 00:32N 34°45' E 119°24'0 0.0
2015-Apr-11 23:33N 34°45' E 119°24'0 0.0
2015-Apr-11 22:20N 34°45' E 119°24'0 0.0
2015-Apr-11 21:32N 34°45' E 119°24'0 0.0
2015-Apr-11 20:32N 34°45' E 119°24'0 0.0
2015-Apr-11 19:32N 34°45' E 119°24'0 0.0
2015-Apr-11 18:32N 34°45' E 119°24'0 0.0
2015-Apr-11 17:32N 34°45' E 119°24'0 0.0
2015-Apr-11 16:32N 34°45' E 119°24'0 0.0
2015-Apr-11 15:32N 34°45' E 119°24'0 0.0
2015-Apr-11 14:32N 34°45' E 119°24'0 0.0
2015-Apr-11 13:33N 34°45' E 119°24'0 0.0
2015-Apr-11 12:32N 34°45' E 119°24'0 0.0
2015-Apr-11 11:32N 34°45' E 119°24'0 0.0
2015-Apr-11 10:32N 34°45' E 119°24'0 0.0
2015-Apr-11 09:32N 34°45' E 119°24'0 0.0
2015-Apr-11 08:32N 34°45' E 119°24'0 0.0
2015-Apr-11 07:32N 34°45' E 119°24'0 0.0
2015-Apr-11 06:32N 34°45' E 119°24'0 0.0
2015-Apr-11 05:32N 34°45' E 119°24'0 0.0
2015-Apr-11 04:32N 34°45' E 119°24'0 0.0
2015-Apr-11 03:26N 34°45' E 119°24'0 0.0
2015-Apr-11 02:32N 34°45' E 119°24'0 0.0
2015-Apr-11 01:32N 34°45' E 119°24'0 0.0
2015-Apr-11 00:26N 34°45' E 119°24'0 0.0
2015-Apr-10 23:32N 34°45' E 119°24'0 0.0
2015-Apr-10 22:32N 34°45' E 119°24'0 0.0
2015-Apr-10 21:33N 34°45' E 119°24'0 0.0
2015-Apr-10 20:32N 34°45' E 119°24'0 0.0
2015-Apr-10 19:32N 34°45' E 119°24'0 0.0
2015-Apr-10 18:32N 34°45' E 119°24'0 0.0
2015-Apr-10 17:32N 34°45' E 119°24'0 0.0
2015-Apr-10 16:32N 34°45' E 119°24'0 0.0
2015-Apr-10 15:26N 34°45' E 119°24'0 0.0
2015-Apr-10 14:32N 34°45' E 119°24'0 0.0
2015-Apr-10 13:32N 34°45' E 119°24'1 1.1
2015-Apr-10 12:33N 34°45' E 119°25'9 8.8
2015-Apr-10 11:33N 34°47' E 119°35'10 9.8
2015-Apr-10 10:33N 34°51' E 119°46'1312.7
2015-Apr-10 09:33N 34°56' E 120°00'2 1.5
2015-Apr-10 08:18N 34°57' E 120°03'0 0.1
2015-Apr-10 06:30N 34°57' E 120°03'0 0.0
2015-Apr-10 05:30N 34°56' E 120°03'0 0.0
2015-Apr-10 04:30N 34°56' E 120°03'0 0.0
2015-Apr-10 02:30N 34°56' E 120°03'0 0.1
2015-Apr-10 01:30N 34°56' E 120°03'0 0.1
2015-Apr-09 23:06N 34°56' E 120°03'0 0.0
2015-Apr-09 19:12N 34°57' E 120°03'0 0.0
2015-Apr-09 18:30N 34°57' E 120°03'0 0.1
2015-Apr-09 17:30N 34°57' E 120°03'0 0.0
2015-Apr-09 16:30N 34°57' E 120°03'0 0.0
2015-Apr-09 15:12N 34°57' E 120°03'0 0.1
2015-Apr-09 14:24N 34°57' E 120°03'0 0.1
2015-Apr-09 13:30N 34°57' E 120°03'0 0.1
2015-Apr-09 12:30N 34°56' E 120°03'0 0.0
2015-Apr-09 11:30N 34°56' E 120°03'0 0.0
2015-Apr-09 10:30N 34°56' E 120°03'0 0.0
2015-Apr-09 09:30N 34°56' E 120°03'0 0.1
2015-Apr-09 08:30N 34°56' E 120°03'0 0.0
2015-Apr-09 07:30N 34°57' E 120°03'0 0.1
2015-Apr-09 06:30N 34°57' E 120°03'0 0.0
2015-Apr-09 03:12N 34°56' E 120°03'0 0.0
2015-Apr-08 18:12N 34°57' E 120°03'0 0.0
2015-Apr-08 01:04N 34°56' E 120°03'0 0.0
2015-Apr-08 00:22N 34°56' E 120°03'0 0.0
2015-Apr-07 22:22N 34°56' E 120°03'0 0.0
2015-Apr-05 19:10N 34°56' E 120°03'0 0.0
2015-Apr-05 08:32N 34°56' E 120°03'0 0.0
2015-Apr-04 15:31N 34°57' E 120°03'0 0.0
2015-Apr-04 12:14N 34°56' E 120°03'0 0.1
2015-Apr-04 11:20N 34°56' E 120°03'0 0.0
2015-Apr-03 15:20N 34°57' E 120°03'0 0.0
2015-Apr-03 09:32N 34°56' E 120°03'0 0.0
2015-Apr-03 07:32N 34°56' E 120°03'0 0.0
2015-Apr-03 06:14N 34°56' E 120°03'0 0.1
2015-Apr-03 04:20N 34°56' E 120°03'0 0.0
2015-Apr-02 20:08N 34°56' E 120°03'0 0.1
2015-Apr-02 18:20N 34°56' E 120°03'0 0.0
2015-Apr-02 16:14N 34°56' E 120°03'  

Dump ship's entire track history